Time;durP1;ratioP1;P1;durP2;ratioP2;P2;SDS_P1;SDS_P2;PMS_P1;PMS_P2;Temp;Humidity;BMP_temperature;BMP_pressure;BME280_temperature;BME280_humidity;BME280_pressure;Samples;Min_cycle;Max_cycle;Signal;HPM_P1;HPM_P2
2023/06/24 00:00:30;;;;;;;20.92;19.33;;;14.60;99.90;;;;;;6273211;22;20015;-75
2023/06/24 00:02:57;;;;;;;21.63;19.83;;;14.50;99.90;;;;;;6272736;22;20012;-75
2023/06/24 00:05:23;;;;;;;21.65;19.85;;;14.50;99.90;;;;;;6272335;22;20078;-75
2023/06/24 00:07:49;;;;;;;22.67;20.77;;;14.50;99.90;;;;;;6272328;22;20015;-75
2023/06/24 00:10:15;;;;;;;21.73;19.92;;;14.50;99.90;;;;;;6272861;22;20012;-75
2023/06/24 00:12:41;;;;;;;19.75;18.15;;;14.40;99.90;;;;;;6273192;22;20008;-75
2023/06/24 00:15:09;;;;;;;20.35;18.75;;;14.40;99.90;;;;;;6221717;22;20011;-75
2023/06/24 00:17:35;;;;;;;20.00;18.52;;;14.40;99.90;;;;;;6223528;22;20011;-75
2023/06/24 00:20:04;;;;;;;22.02;20.00;;;14.40;99.90;;;;;;6275209;22;20317;-75
2023/06/24 00:22:29;;;;;;;21.42;19.55;;;14.40;99.90;;;;;;6275068;22;20012;-75
2023/06/24 00:24:56;;;;;;;20.45;18.75;;;14.40;99.90;;;;;;6274867;22;20012;-75
2023/06/24 00:27:22;;;;;;;21.10;19.20;;;14.40;99.90;;;;;;6274462;22;20118;-75
2023/06/24 00:29:47;;;;;;;22.92;20.85;;;14.30;99.90;;;;;;6274432;22;20112;-75
2023/06/24 00:32:13;;;;;;;21.77;19.88;;;14.20;99.90;;;;;;6275076;22;20011;-75
2023/06/24 00:34:43;;;;;;;21.35;19.50;;;14.30;99.90;;;;;;6223064;22;20008;-75
2023/06/24 00:37:09;;;;;;;20.50;18.90;;;14.20;99.90;;;;;;6273609;22;20014;-75
2023/06/24 00:39:34;;;;;;;20.30;18.63;;;14.10;99.90;;;;;;6275076;22;20065;-75
2023/06/24 00:42:00;;;;;;;20.30;18.67;;;14.20;99.90;;;;;;6275404;22;20007;-75
2023/06/24 00:44:26;;;;;;;19.80;18.27;;;14.20;99.90;;;;;;6274400;22;20444;-75
2023/06/24 00:46:51;;;;;;;20.77;19.17;;;14.10;99.90;;;;;;6273396;22;20043;-75
2023/06/24 00:49:17;;;;;;;19.95;18.38;;;14.20;99.90;;;;;;6274907;22;20456;-75
2023/06/24 00:51:47;;;;;;;19.58;18.02;;;14.10;99.90;;;;;;6274705;22;20065;-75
2023/06/24 00:54:13;;;;;;;20.42;18.83;;;14.00;99.90;;;;;;6274430;22;20015;-75
2023/06/24 00:56:38;;;;;;;19.30;17.80;;;14.10;99.90;;;;;;6273585;22;20012;-75
2023/06/24 00:59:06;;;;;;;20.67;18.95;;;14.00;99.90;;;;;;6274514;22;20047;-75
2023/06/24 01:01:35;;;;;;;20.52;18.83;;;14.00;99.90;;;;;;6274837;22;20058;-75
2023/06/24 01:04:02;;;;;;;19.73;18.02;;;14.00;99.90;;;;;;6274201;22;20035;-75
2023/06/24 01:06:29;;;;;;;19.60;17.90;;;14.00;99.90;;;;;;6274009;22;20461;-75
2023/06/24 01:08:56;;;;;;;18.25;16.75;;;13.90;99.90;;;;;;6273951;22;20016;-75
2023/06/24 01:11:23;;;;;;;19.83;18.25;;;14.00;99.90;;;;;;6274711;22;20019;-75
2023/06/24 01:13:50;;;;;;;20.58;18.90;;;13.90;99.90;;;;;;6224055;22;20008;-75
2023/06/24 01:16:29;;;;;;;20.35;18.75;;;13.90;99.90;;;;;;6273130;22;20448;-75
2023/06/24 01:19:02;;;;;;;20.50;18.73;;;13.90;99.90;;;;;;6273826;22;20012;-75
2023/06/24 01:21:40;;;;;;;18.55;17.13;;;13.80;99.90;;;;;;6274540;22;20034;-75
2023/06/24 01:24:27;;;;;;;22.08;20.27;;;13.80;99.90;;;;;;6274421;22;20011;-75
2023/06/24 01:27:08;;;;;;;21.58;19.88;;;13.70;99.90;;;;;;6272607;22;20008;-75
2023/06/24 01:29:51;;;;;;;23.05;20.95;;;13.70;99.90;;;;;;6223739;22;20065;-75
2023/06/24 01:32:45;;;;;;;21.50;19.67;;;13.70;99.90;;;;;;6273563;22;20014;-75
2023/06/24 01:35:23;;;;;;;21.52;19.75;;;13.60;99.90;;;;;;6243040;22;20012;-75
2023/06/24 01:37:51;;;;;;;21.30;19.67;;;13.60;99.90;;;;;;6248719;22;20012;-75
2023/06/24 01:40:27;;;;;;;22.08;20.17;;;13.60;99.90;;;;;;6274598;22;20061;-75
2023/06/24 01:42:54;;;;;;;22.08;20.25;;;13.60;99.90;;;;;;6223193;22;20015;-75
2023/06/24 01:45:24;;;;;;;23.08;21.17;;;13.50;99.90;;;;;;6274066;22;20375;-75
2023/06/24 01:47:59;;;;;;;21.13;19.42;;;13.50;99.90;;;;;;6273786;22;20371;-75
2023/06/24 01:50:26;;;;;;;21.45;19.73;;;13.50;99.90;;;;;;6274612;22;20095;-75
2023/06/24 01:52:54;;;;;;;24.63;22.33;;;13.50;99.90;;;;;;6273476;22;20043;-75
2023/06/24 01:55:21;;;;;;;24.35;22.42;;;13.50;99.90;;;;;;6273906;22;20133;-75
2023/06/24 01:57:49;;;;;;;22.83;21.02;;;13.40;99.90;;;;;;6273580;22;20012;-75
2023/06/24 02:00:16;;;;;;;21.52;19.83;;;13.40;99.90;;;;;;6273833;22;20069;-75
2023/06/24 02:02:43;;;;;;;22.13;20.15;;;13.40;99.90;;;;;;6222947;22;20011;-75
2023/06/24 02:05:10;;;;;;;22.38;20.40;;;13.40;99.90;;;;;;6223453;22;20012;-75
2023/06/24 02:07:36;;;;;;;22.65;20.65;;;13.30;99.90;;;;;;6272584;22;20037;-75
2023/06/24 02:10:03;;;;;;;22.40;20.60;;;13.40;99.90;;;;;;6274247;22;20011;-75
2023/06/24 02:12:30;;;;;;;22.52;20.63;;;13.30;99.90;;;;;;6222908;22;20321;-75
2023/06/24 02:14:57;;;;;;;21.85;20.05;;;13.30;99.90;;;;;;6274116;22;20027;-75
2023/06/24 02:17:25;;;;;;;20.88;19.08;;;13.30;99.90;;;;;;6273095;22;20437;-75
2023/06/24 02:19:52;;;;;;;21.15;19.45;;;13.30;99.90;;;;;;6273588;22;20440;-75
2023/06/24 02:22:19;;;;;;;22.05;20.25;;;13.20;99.90;;;;;;6274200;22;20015;-75
2023/06/24 02:24:45;;;;;;;21.80;20.08;;;13.20;99.90;;;;;;6274012;22;20456;-75
2023/06/24 02:27:12;;;;;;;22.48;20.58;;;13.20;99.90;;;;;;6272737;22;20069;-75
2023/06/24 02:29:39;;;;;;;21.83;20.13;;;13.20;99.90;;;;;;6273989;22;20039;-75
2023/06/24 02:32:06;;;;;;;21.80;20.08;;;13.10;99.90;;;;;;6273488;22;20018;-75
2023/06/24 02:34:32;;;;;;;21.52;19.70;;;13.10;99.90;;;;;;6273895;22;20504;-75
2023/06/24 02:36:57;;;;;;;23.20;21.10;;;13.10;99.90;;;;;;6273609;22;20049;-75
2023/06/24 02:39:23;;;;;;;25.58;23.17;;;13.10;99.90;;;;;;6273450;22;20034;-75
2023/06/24 02:41:49;;;;;;;21.75;19.85;;;13.10;99.90;;;;;;6273494;22;20466;-75
2023/06/24 02:44:15;;;;;;;25.75;23.45;;;13.10;99.90;;;;;;6272204;22;20452;-75
2023/06/24 02:46:43;;;;;;;25.95;23.65;;;13.00;99.90;;;;;;6273152;22;20019;-75
2023/06/24 02:49:12;;;;;;;26.90;24.40;;;13.00;99.90;;;;;;6273858;22;20018;-75
2023/06/24 02:51:39;;;;;;;29.88;26.90;;;13.00;99.90;;;;;;6222555;22;20390;-75
2023/06/24 02:54:06;;;;;;;28.80;26.42;;;13.00;99.90;;;;;;6222702;22;20012;-75
2023/06/24 02:56:32;;;;;;;27.23;24.92;;;13.00;99.90;;;;;;6272439;22;20465;-75
2023/06/24 02:58:58;;;;;;;28.85;26.35;;;13.00;99.90;;;;;;6273605;22;20074;-75
2023/06/24 03:01:27;;;;;;;30.75;27.98;;;13.00;99.90;;;;;;6273255;22;20016;-75
2023/06/24 03:03:57;;;;;;;30.10;27.50;;;13.00;99.90;;;;;;6222234;22;20062;-75
2023/06/24 03:06:23;;;;;;;30.75;28.10;;;13.00;99.90;;;;;;6272279;22;20057;-75
2023/06/24 03:08:50;;;;;;;31.85;29.20;;;13.00;99.90;;;;;;6273144;22;20011;-75
2023/06/24 03:11:16;;;;;;;34.75;31.23;;;13.00;99.90;;;;;;6273210;22;20060;-75
2023/06/24 03:13:43;;;;;;;32.22;29.35;;;13.00;99.90;;;;;;6273563;22;20008;-75
2023/06/24 03:16:12;;;;;;;32.42;29.60;;;13.10;99.90;;;;;;6221734;22;20016;-75
2023/06/24 03:18:41;;;;;;;33.30;30.33;;;13.10;99.90;;;;;;6273138;22;20020;-75
2023/06/24 03:21:07;;;;;;;34.47;31.30;;;13.10;99.90;;;;;;6273435;22;20015;-75
2023/06/24 03:23:33;;;;;;;32.30;29.50;;;13.10;99.90;;;;;;6273397;22;20022;-75
2023/06/24 03:25:58;;;;;;;31.27;28.50;;;13.10;99.90;;;;;;6272391;22;20019;-75
2023/06/24 03:28:24;;;;;;;33.88;31.00;;;13.10;99.90;;;;;;6273001;22;20046;-75
2023/06/24 03:30:50;;;;;;;34.10;31.13;;;13.20;99.90;;;;;;6273479;22;20042;-75
2023/06/24 03:33:16;;;;;;;31.63;28.92;;;13.20;99.90;;;;;;6272490;22;20440;-75
2023/06/24 03:35:43;;;;;;;35.00;31.80;;;13.20;99.90;;;;;;6273299;22;20321;-75
2023/06/24 03:38:08;;;;;;;32.78;29.77;;;13.20;99.90;;;;;;6271925;22;20340;-75
2023/06/24 03:40:34;;;;;;;34.03;30.92;;;13.20;99.90;;;;;;6273281;22;20008;-75
2023/06/24 03:43:00;;;;;;;30.17;27.50;;;13.20;99.90;;;;;;6272987;22;20403;-75
2023/06/24 03:45:25;;;;;;;32.47;29.67;;;13.20;99.90;;;;;;6273376;22;20015;-75
2023/06/24 03:47:51;;;;;;;35.72;32.45;;;13.30;99.90;;;;;;6271475;22;20015;-75
2023/06/24 03:50:17;;;;;;;34.63;31.25;;;13.30;99.90;;;;;;6273186;22;20008;-75
2023/06/24 03:52:44;;;;;;;31.75;29.02;;;13.40;99.90;;;;;;6273085;22;20007;-75
2023/06/24 03:55:10;;;;;;;34.50;31.20;;;13.40;99.90;;;;;;6273237;22;20008;-75
2023/06/24 03:57:36;;;;;;;36.38;32.75;;;13.50;99.90;;;;;;6272375;22;20065;-75
2023/06/24 04:00:12;;;;;;;36.80;33.22;;;13.50;99.90;;;;;;6222017;22;20016;-75
2023/06/24 04:02:38;;;;;;;36.33;32.95;;;13.60;99.90;;;;;;6272850;22;20446;-75
2023/06/24 04:05:06;;;;;;;35.80;32.65;;;13.70;99.90;;;;;;6273344;22;20086;-75
2023/06/24 04:07:32;;;;;;;41.60;37.33;;;13.80;99.90;;;;;;6271196;22;20008;-75
2023/06/24 04:09:57;;;;;;;40.28;36.65;;;13.90;99.90;;;;;;6271960;22;20012;-75
2023/06/24 04:12:23;;;;;;;36.97;33.72;;;13.90;99.90;;;;;;6221816;22;20043;-75
2023/06/24 04:14:49;;;;;;;36.30;33.00;;;13.90;99.90;;;;;;6272407;22;20004;-75
2023/06/24 04:17:15;;;;;;;34.67;31.60;;;14.00;99.90;;;;;;6272846;22;20064;-75
2023/06/24 04:19:41;;;;;;;35.45;32.40;;;14.10;99.90;;;;;;6273208;22;20015;-75
2023/06/24 04:22:07;;;;;;;32.45;29.65;;;14.10;99.90;;;;;;6271478;22;20020;-75
2023/06/24 04:24:33;;;;;;;39.38;35.58;;;14.20;99.90;;;;;;6272869;22;20097;-75
2023/06/24 04:26:59;;;;;;;37.20;33.60;;;14.20;99.90;;;;;;6272394;22;20466;-75
2023/06/24 04:29:24;;;;;;;36.22;33.03;;;14.40;99.90;;;;;;6273146;22;20012;-75
2023/06/24 04:31:50;;;;;;;31.90;29.33;;;14.60;99.90;;;;;;6271438;22;20095;-75
2023/06/24 04:34:15;;;;;;;34.13;31.13;;;14.90;99.90;;;;;;6273112;22;20046;-75
2023/06/24 04:36:41;;;;;;;32.03;29.33;;;15.30;99.90;;;;;;6221699;22;20496;-75
2023/06/24 04:39:07;;;;;;;31.38;28.77;;;15.80;99.90;;;;;;6272187;22;20019;-75
2023/06/24 04:41:33;;;;;;;29.10;26.50;;;16.30;99.90;;;;;;6271805;22;20467;-75
2023/06/24 04:43:59;;;;;;;28.83;26.33;;;16.80;99.90;;;;;;6270929;22;20019;-75
2023/06/24 04:46:24;;;;;;;27.88;25.55;;;17.10;99.90;;;;;;6272062;22;20012;-75
2023/06/24 04:48:50;;;;;;;26.83;24.58;;;17.30;99.90;;;;;;6272982;22;20011;-75
2023/06/24 04:51:15;;;;;;;25.33;23.23;;;17.60;99.90;;;;;;6271280;22;20016;-76
2023/06/24 04:53:41;;;;;;;25.88;23.75;;;17.90;99.90;;;;;;6270159;22;20335;-75
2023/06/24 04:56:06;;;;;;;24.85;22.77;;;18.20;99.90;;;;;;6221542;22;20087;-75
2023/06/24 04:58:32;;;;;;;24.95;22.75;;;18.50;99.90;;;;;;6273098;22;20352;-75
2023/06/24 05:00:58;;;;;;;24.10;22.10;;;18.80;99.90;;;;;;6220789;22;20022;-75
2023/06/24 05:03:24;;;;;;;23.92;22.00;;;18.90;99.90;;;;;;6273369;22;20344;-76
2023/06/24 05:05:50;;;;;;;23.70;21.80;;;19.00;99.90;;;;;;6274646;22;20015;-76
2023/06/24 05:08:15;;;;;;;23.42;21.33;;;19.10;99.90;;;;;;6274831;22;20452;-75
2023/06/24 05:10:41;;;;;;;23.13;21.33;;;19.30;99.90;;;;;;6273024;22;20024;-75
2023/06/24 05:13:06;;;;;;;22.70;20.75;;;19.50;99.90;;;;;;6273990;22;20448;-75
2023/06/24 05:15:32;;;;;;;22.10;20.30;;;19.80;99.90;;;;;;6274438;22;20074;-75
2023/06/24 05:17:57;;;;;;;22.92;21.02;;;19.90;99.90;;;;;;6223702;22;20015;-75
2023/06/24 05:20:23;;;;;;;22.48;20.48;;;20.20;99.90;;;;;;6273134;22;20455;-75
2023/06/24 05:22:49;;;;;;;21.05;19.30;;;20.40;99.90;;;;;;6273288;22;20011;-76
2023/06/24 05:25:14;;;;;;;21.63;19.90;;;20.70;99.90;;;;;;6274661;22;20066;-76
2023/06/24 05:27:40;;;;;;;20.92;19.23;;;21.00;99.90;;;;;;6274586;22;20012;-76
2023/06/24 05:30:06;;;;;;;20.23;18.58;;;21.30;99.90;;;;;;6274112;22;20020;-76
2023/06/24 05:32:32;;;;;;;20.30;18.73;;;21.60;99.90;;;;;;6222304;22;20019;-76
2023/06/24 05:34:57;;;;;;;19.85;18.30;;;21.90;99.90;;;;;;6223712;22;20004;-76
2023/06/24 05:37:23;;;;;;;20.20;18.60;;;22.20;99.90;;;;;;6274356;22;20083;-76
2023/06/24 05:39:48;;;;;;;19.50;17.90;;;22.50;99.90;;;;;;6223396;22;20447;-76
2023/06/24 05:42:14;;;;;;;19.23;17.73;;;22.80;99.90;;;;;;6273195;22;20019;-76
2023/06/24 05:44:40;;;;;;;19.27;17.77;;;23.10;99.90;;;;;;6274047;22;20394;-76
2023/06/24 05:47:05;;;;;;;19.05;17.45;;;23.30;99.90;;;;;;6222926;22;20045;-76
2023/06/24 05:49:31;;;;;;;18.80;17.30;;;23.50;99.90;;;;;;6223130;22;20043;-75
2023/06/24 05:51:57;;;;;;;18.77;17.27;;;23.60;99.90;;;;;;6273303;22;20016;-75
2023/06/24 05:54:23;;;;;;;19.70;18.13;;;23.80;99.90;;;;;;6274009;22;20450;-75
2023/06/24 05:56:49;;;;;;;18.73;17.33;;;24.00;99.90;;;;;;6274120;22;20018;-76
2023/06/24 05:59:14;;;;;;;18.55;17.15;;;24.10;99.90;;;;;;6273776;22;20007;-76
2023/06/24 06:01:40;;;;;;;19.08;17.40;;;23.90;99.90;;;;;;6222594;22;20016;-76
2023/06/24 06:04:06;;;;;;;19.15;17.55;;;23.50;99.90;;;;;;6273951;22;20340;-76
2023/06/24 06:06:31;;;;;;;18.45;16.95;;;23.00;99.90;;;;;;6274016;22;20016;-76
2023/06/24 06:08:57;;;;;;;19.92;18.42;;;22.60;99.90;;;;;;6273714;22;20055;-76
2023/06/24 06:11:23;;;;;;;19.77;18.35;;;22.10;99.90;;;;;;6273501;22;20011;-75
2023/06/24 06:13:48;;;;;;;20.80;19.20;;;21.70;99.90;;;;;;6272267;22;20008;-75
2023/06/24 06:16:14;;;;;;;20.27;18.60;;;21.50;99.90;;;;;;6273695;22;20348;-76
2023/06/24 06:18:40;;;;;;;20.60;18.90;;;21.20;99.90;;;;;;6274151;22;20087;-76
2023/06/24 06:21:05;;;;;;;21.00;19.23;;;21.00;99.90;;;;;;6273563;22;20065;-75
2023/06/24 06:23:31;;;;;;;20.67;19.02;;;20.90;99.90;;;;;;6273052;22;20057;-75
2023/06/24 06:25:57;;;;;;;21.83;19.85;;;20.80;99.90;;;;;;6273799;22;20029;-75
2023/06/24 06:28:22;;;;;;;20.27;18.65;;;20.70;99.90;;;;;;6223064;22;20019;-75
2023/06/24 06:30:48;;;;;;;19.65;18.05;;;20.70;99.90;;;;;;6274072;22;20493;-75
2023/06/24 06:33:13;;;;;;;19.48;17.98;;;20.60;99.90;;;;;;6272878;22;20011;-75
2023/06/24 06:35:39;;;;;;;21.00;19.10;;;20.60;99.90;;;;;;6274198;22;20110;-75
2023/06/24 06:38:05;;;;;;;20.38;18.52;;;20.60;99.90;;;;;;6273779;22;20350;-75
2023/06/24 06:40:30;;;;;;;20.35;18.63;;;20.60;99.90;;;;;;6273136;22;20012;-75
2023/06/24 06:42:56;;;;;;;18.70;16.95;;;20.60;99.90;;;;;;6273131;22;20447;-75
2023/06/24 06:45:22;;;;;;;18.10;16.60;;;20.70;99.90;;;;;;6273904;22;20436;-75
2023/06/24 06:47:49;;;;;;;17.38;15.93;;;20.80;99.90;;;;;;6273538;22;20089;-75
2023/06/24 06:50:15;;;;;;;15.77;14.48;;;20.90;99.90;;;;;;6273416;22;20016;-75
2023/06/24 06:52:41;;;;;;;15.73;14.32;;;20.90;99.90;;;;;;6272502;22;20015;-75
2023/06/24 06:55:06;;;;;;;15.90;14.50;;;20.90;99.90;;;;;;6273776;22;20015;-75
2023/06/24 06:57:32;;;;;;;16.17;14.75;;;21.00;99.90;;;;;;6273531;22;20008;-75
2023/06/24 06:59:58;;;;;;;16.73;15.23;;;21.10;99.90;;;;;;6272409;22;20072;-75
2023/06/24 07:02:23;;;;;;;15.32;14.07;;;21.20;99.90;;;;;;6272915;22;20448;-75
2023/06/24 07:04:50;;;;;;;15.75;14.45;;;21.30;99.90;;;;;;6273638;22;20108;-75
2023/06/24 07:07:16;;;;;;;15.90;14.40;;;21.60;99.90;;;;;;6272885;22;20004;-75
2023/06/24 07:09:42;;;;;;;16.05;14.68;;;21.90;99.90;;;;;;6273244;22;20010;-75
2023/06/24 07:12:08;;;;;;;16.65;15.18;;;22.10;99.90;;;;;;6273491;22;20014;-76
2023/06/24 07:14:33;;;;;;;16.05;14.52;;;22.30;99.90;;;;;;6273709;22;20008;-75
2023/06/24 07:17:00;;;;;;;16.73;15.25;;;22.40;99.90;;;;;;6273305;22;20509;-76
2023/06/24 07:19:25;;;;;;;15.93;14.25;;;22.50;99.90;;;;;;6272149;22;20011;-76
2023/06/24 07:21:52;;;;;;;15.25;13.95;;;22.50;99.90;;;;;;6272605;22;20014;-74
2023/06/24 07:24:18;;;;;;;14.93;13.57;;;22.60;99.90;;;;;;6273204;22;20024;-76
2023/06/24 07:26:44;;;;;;;15.70;14.35;;;22.70;99.90;;;;;;6272084;22;20019;-76
2023/06/24 07:29:10;;;;;;;14.63;13.35;;;22.80;99.90;;;;;;6274055;22;20399;-76
2023/06/24 07:31:36;;;;;;;15.68;14.38;;;22.90;99.90;;;;;;6273261;22;20336;-76
2023/06/24 07:34:02;;;;;;;14.68;13.48;;;23.00;99.90;;;;;;6273352;22;20479;-76
2023/06/24 07:36:27;;;;;;;13.80;12.60;;;23.20;99.90;;;;;;6272973;22;20011;-76
2023/06/24 07:38:53;;;;;;;13.63;12.38;;;23.30;99.90;;;;;;6272809;22;20027;-76
2023/06/24 07:41:19;;;;;;;11.88;10.93;;;23.60;99.90;;;;;;6272649;22;20039;-80
2023/06/24 07:43:44;;;;;;;11.50;10.48;;;23.90;99.90;;;;;;6222782;22;20011;-76
2023/06/24 07:46:10;;;;;;;12.55;11.30;;;24.40;99.90;;;;;;6221607;22;20010;-76
2023/06/24 07:48:35;;;;;;;12.57;11.48;;;24.70;99.90;;;;;;6272845;22;20024;-77
2023/06/24 07:51:01;;;;;;;12.38;11.38;;;25.20;99.90;;;;;;6272554;22;20015;-77
2023/06/24 07:53:27;;;;;;;11.50;10.43;;;25.50;99.90;;;;;;6273437;22;20011;-77
2023/06/24 07:55:52;;;;;;;11.25;9.93;;;25.70;99.90;;;;;;6273064;22;20086;-77
2023/06/24 07:58:19;;;;;;;10.82;9.75;;;25.60;99.90;;;;;;6273305;22;20090;-77
2023/06/24 08:00:45;;;;;;;9.77;8.95;;;25.70;99.90;;;;;;6272936;22;20012;-77
2023/06/24 08:03:12;;;;;;;8.48;7.57;;;26.00;99.90;;;;;;6245663;22;20090;-77
2023/06/24 08:05:38;;;;;;;10.00;8.95;;;26.20;99.90;;;;;;6221987;22;20427;-78
2023/06/24 08:08:05;;;;;;;9.30;8.13;;;26.60;99.90;;;;;;6272458;22;20460;-77
2023/06/24 08:10:31;;;;;;;6.80;6.13;;;26.90;99.90;;;;;;6220676;22;20008;-75
2023/06/24 08:12:56;;;;;;;7.20;6.60;;;27.10;87.40;;;;;;6271444;22;20087;-76
2023/06/24 08:15:22;;;;;;;8.20;6.30;;;27.20;87.60;;;;;;6272323;22;20137;-75
2023/06/24 08:17:52;;;;;;;6.43;5.80;;;27.10;71.60;;;;;;6272919;22;20343;-76
2023/06/24 08:20:18;;;;;;;7.07;5.53;;;27.30;72.20;;;;;;6271782;22;20019;-76
2023/06/24 08:22:43;;;;;;;6.25;5.65;;;27.60;72.30;;;;;;6272887;22;20026;-76
2023/06/24 08:25:09;;;;;;;5.93;5.10;;;27.90;73.70;;;;;;6272786;22;20016;-75
2023/06/24 08:27:35;;;;;;;6.63;4.88;;;28.30;73.60;;;;;;6271810;22;20499;-76
2023/06/24 08:30:00;;;;;;;6.43;5.10;;;28.60;69.10;;;;;;6272697;22;20064;-74
2023/06/24 08:32:26;;;;;;;5.10;4.60;;;29.00;67.80;;;;;;6272378;22;20075;-76
2023/06/24 08:34:51;;;;;;;5.18;4.68;;;29.40;65.50;;;;;;6272754;22;20043;-76
2023/06/24 08:37:17;;;;;;;5.72;3.90;;;29.90;64.40;;;;;;6274159;22;20026;-76
2023/06/24 08:39:43;;;;;;;4.28;3.80;;;29.80;61.60;;;;;;6276162;22;20098;-76
2023/06/24 08:42:08;;;;;;;5.40;3.60;;;29.90;60.40;;;;;;6274723;22;20046;-76
2023/06/24 08:44:34;;;;;;;4.63;4.03;;;30.10;60.10;;;;;;6274907;22;20043;-76
2023/06/24 08:46:59;;;;;;;5.55;3.75;;;30.60;60.50;;;;;;6274500;22;20448;-76
2023/06/24 08:49:34;;;;;;;3.22;2.92;;;30.80;56.00;;;;;;6274622;22;20118;-76
2023/06/24 08:52:02;;;;;;;4.50;3.00;;;31.00;56.20;;;;;;6278753;22;20012;-77
2023/06/24 08:54:29;;;;;;;4.05;3.33;;;31.20;56.40;;;;;;6274229;22;20018;-77
2023/06/24 08:56:55;;;;;;;3.35;3.05;;;31.50;56.70;;;;;;6273191;22;20329;-77
2023/06/24 08:59:21;;;;;;;4.50;3.00;;;31.90;56.10;;;;;;6273550;22;20077;-77
2023/06/24 09:01:47;;;;;;;3.03;2.50;;;32.20;55.70;;;;;;6277330;22;20015;-76
2023/06/24 09:04:13;;;;;;;3.30;2.90;;;32.60;53.40;;;;;;6274739;22;20087;-77
2023/06/24 09:06:38;;;;;;;4.97;3.05;;;32.70;53.00;;;;;;6276859;22;20046;-77
2023/06/24 09:09:04;;;;;;;5.03;3.30;;;32.80;52.30;;;;;;6250695;22;20357;-77
2023/06/24 09:11:32;;;;;;;4.80;3.22;;;32.90;51.20;;;;;;6275543;22;20004;-77
2023/06/24 09:14:00;;;;;;;3.45;2.60;;;33.10;50.40;;;;;;6275137;22;20012;-77
2023/06/24 09:16:27;;;;;;;3.70;2.45;;;33.20;48.20;;;;;;6273316;22;20050;-77
2023/06/24 09:18:53;;;;;;;2.97;2.55;;;33.10;48.30;;;;;;6275613;22;20047;-77
2023/06/24 09:21:26;;;;;;;3.78;3.03;;;33.10;50.20;;;;;;6283161;22;20019;-77
2023/06/24 09:23:57;;;;;;;3.70;3.20;;;33.20;48.10;;;;;;6232942;22;20029;-80
2023/06/24 09:26:27;;;;;;;4.50;3.00;;;33.20;48.30;;;;;;6279057;22;20011;-77
2023/06/24 09:28:54;;;;;;;3.75;3.13;;;33.20;47.50;;;;;;6276765;22;20012;-77
2023/06/24 09:31:20;;;;;;;14.45;3.80;;;33.00;48.50;;;;;;6278066;22;20562;-77
2023/06/24 09:33:47;;;;;;;2.88;2.60;;;33.00;49.40;;;;;;6275344;22;20079;-77
2023/06/24 09:36:14;;;;;;;25.70;4.53;;;33.10;49.10;;;;;;6274232;22;20073;-77
2023/06/24 09:38:42;;;;;;;32.70;6.30;;;33.20;48.50;;;;;;6225086;22;20063;-77
2023/06/24 09:41:08;;;;;;;7.68;4.70;;;33.20;51.60;;;;;;6276761;22;20027;-77
2023/06/24 09:43:39;;;;;;;4.40;4.00;;;33.40;52.20;;;;;;6276446;22;20073;-77
2023/06/24 09:46:06;;;;;;;4.65;4.00;;;33.60;50.50;;;;;;6274697;22;20019;-77
2023/06/24 09:48:35;;;;;;;4.55;4.10;;;33.80;51.80;;;;;;6276487;22;20023;-77
2023/06/24 09:51:03;;;;;;;5.00;4.18;;;34.00;52.70;;;;;;6275222;22;20012;-77
2023/06/24 09:53:34;;;;;;;5.97;4.32;;;34.30;50.90;;;;;;6278117;22;20012;-78
2023/06/24 09:56:01;;;;;;;5.70;4.38;;;34.50;48.50;;;;;;6275871;22;20008;-77
2023/06/24 09:58:34;;;;;;;4.93;4.43;;;34.40;47.60;;;;;;6275290;22;20019;-77
2023/06/24 10:01:03;;;;;;;5.85;4.47;;;34.40;50.20;;;;;;6273779;22;20351;-77
2023/06/24 10:03:32;;;;;;;7.07;5.03;;;34.60;52.10;;;;;;6276368;22;20022;-77
2023/06/24 10:05:59;;;;;;;5.78;5.07;;;34.90;50.40;;;;;;6277689;22;20094;-77
2023/06/24 10:08:24;;;;;;;5.57;5.07;;;35.10;50.20;;;;;;6224800;22;20015;-77
2023/06/24 10:10:50;;;;;;;6.50;5.90;;;35.10;48.60;;;;;;6274599;22;20059;-77
2023/06/24 10:13:15;;;;;;;5.93;5.43;;;35.10;48.00;;;;;;6248340;22;20012;-77
2023/06/24 10:15:41;;;;;;;6.93;5.72;;;35.10;48.60;;;;;;6274161;22;20011;-77
2023/06/24 10:18:36;;;;;;;7.40;5.80;;;34.90;48.70;;;;;;6273981;22;20016;-77
2023/06/24 10:21:03;;;;;;;7.60;5.53;;;35.10;49.30;;;;;;6224505;22;20011;-77
2023/06/24 10:23:42;;;;;;;6.65;5.47;;;35.10;51.80;;;;;;6274782;22;20538;-77
2023/06/24 10:26:10;;;;;;;5.63;5.00;;;35.30;50.70;;;;;;6274108;22;20114;-77
2023/06/24 10:29:05;;;;;;;7.30;4.90;;;35.60;50.50;;;;;;6273628;22;20016;-77
2023/06/24 10:31:39;;;;;;;5.47;4.85;;;35.80;48.10;;;;;;6194529;22;20016;-77
2023/06/24 10:34:23;;;;;;;7.35;4.70;;;35.80;48.10;;;;;;6273922;22;20348;-77
2023/06/24 10:37:00;;;;;;;5.55;4.78;;;35.80;46.30;;;;;;6223406;22;20007;-77
2023/06/24 10:39:38;;;;;;;5.88;4.57;;;35.90;48.20;;;;;;6273318;22;20047;-77
2023/06/24 10:42:23;;;;;;;6.60;4.78;;;36.00;48.10;;;;;;6222839;22;20065;-77
2023/06/24 10:44:49;;;;;;;5.80;4.85;;;36.10;49.60;;;;;;6275052;22;20022;-77
2023/06/24 10:47:15;;;;;;;4.75;4.18;;;36.20;48.00;;;;;;6273997;22;20015;-77
2023/06/24 10:49:40;;;;;;;5.00;4.50;;;36.30;46.90;;;;;;6275257;22;20022;-77
2023/06/24 10:52:10;;;;;;;5.60;4.13;;;36.40;46.80;;;;;;6276246;22;20018;-77
2023/06/24 10:54:37;;;;;;;5.28;4.07;;;36.50;48.20;;;;;;6273932;22;20519;-77
2023/06/24 10:57:07;;;;;;;8.60;4.85;;;36.70;48.20;;;;;;6273573;22;20008;-77
2023/06/24 10:59:46;;;;;;;5.80;4.50;;;36.80;48.00;;;;;;6273221;22;20011;-76
2023/06/24 11:02:19;;;;;;;4.75;4.25;;;37.00;47.00;;;;;;6273717;22;20015;-77
2023/06/24 11:05:00;;;;;;;5.65;4.68;;;37.10;47.90;;;;;;6274555;22;20016;-77
2023/06/24 11:07:30;;;;;;;5.55;4.45;;;37.30;46.90;;;;;;6275944;22;20016;-77
2023/06/24 11:09:58;;;;;;;5.40;4.90;;;37.20;47.00;;;;;;6253359;22;20019;-77
2023/06/24 11:12:25;;;;;;;5.50;5.00;;;37.30;47.30;;;;;;6280182;22;20008;-77
2023/06/24 11:14:55;;;;;;;5.30;4.78;;;37.50;47.50;;;;;;6275050;22;20034;-77
2023/06/24 11:17:20;;;;;;;5.10;3.95;;;37.60;46.90;;;;;;6280366;22;20345;-77
2023/06/24 11:19:46;;;;;;;3.50;3.20;;;37.10;44.70;;;;;;6274071;22;20023;-77
2023/06/24 11:22:12;;;;;;;4.05;3.63;;;36.60;44.20;;;;;;6278417;22;20008;-78
2023/06/24 11:24:39;;;;;;;4.18;3.72;;;36.10;47.00;;;;;;6274391;22;20463;-77
2023/06/24 11:27:05;;;;;;;5.05;3.58;;;36.30;49.10;;;;;;6272764;22;20368;-77
2023/06/24 11:29:32;;;;;;;3.47;3.17;;;36.60;48.80;;;;;;6273568;22;20019;-77
2023/06/24 11:31:58;;;;;;;4.95;3.88;;;36.90;46.90;;;;;;6222533;22;20011;-77
2023/06/24 11:34:24;;;;;;;4.80;3.45;;;37.10;44.90;;;;;;6273048;22;20346;-77
2023/06/24 11:36:49;;;;;;;4.93;3.40;;;36.90;44.70;;;;;;6272348;22;20058;-77
2023/06/24 11:39:27;;;;;;;5.03;3.55;;;37.10;46.40;;;;;;6220827;22;20113;-77
2023/06/24 11:41:53;;;;;;;3.30;3.00;;;37.00;45.20;;;;;;6273497;22;20011;-77
2023/06/24 11:44:21;;;;;;;3.60;3.03;;;36.90;45.60;;;;;;6272470;22;20012;-77
2023/06/24 11:46:47;;;;;;;4.50;3.22;;;37.20;45.50;;;;;;6273835;22;20020;-78
2023/06/24 11:49:14;;;;;;;4.50;4.10;;;37.30;46.50;;;;;;6285864;22;20091;-78
2023/06/24 11:51:47;;;;;;;4.32;3.67;;;36.90;46.40;;;;;;6286385;22;20074;-78
2023/06/24 11:54:16;;;;;;;4.28;3.75;;;36.90;47.10;;;;;;6287890;22;20012;-78
2023/06/24 11:56:43;;;;;;;5.80;4.10;;;37.00;45.60;;;;;;6288079;22;20059;-78
2023/06/24 11:59:19;;;;;;;4.63;4.05;;;36.80;43.40;;;;;;6290293;22;20016;-78
2023/06/24 12:01:51;;;;;;;6.60;3.85;;;36.70;46.90;;;;;;6288655;22;20106;-78
2023/06/24 12:04:17;;;;;;;;;;;36.90;47.60;;;;;;6290077;22;20539;-78
2023/06/24 12:06:44;;;;;;;5.00;3.97;;;37.10;46.10;;;;;;6265406;22;19915;-78
2023/06/24 12:09:10;;;;;;;5.03;3.70;;;37.00;46.00;;;;;;6264170;22;20027;-78
2023/06/24 12:11:36;;;;;;;4.15;3.00;;;36.60;47.90;;;;;;6240120;22;20008;-78
2023/06/24 12:14:02;;;;;;;5.28;3.30;;;35.90;46.00;;;;;;6293961;22;20047;-78
2023/06/24 12:16:29;;;;;;;7.82;3.95;;;35.60;47.30;;;;;;6241810;22;20003;-78
2023/06/24 12:18:54;;;;;;;5.28;4.78;;;35.90;49.70;;;;;;6294702;22;20011;-78
2023/06/24 12:21:20;;;;;;;35.60;5.53;;;36.40;46.10;;;;;;6294077;22;20039;-78
2023/06/24 12:23:45;;;;;;;8.07;4.50;;;36.50;46.90;;;;;;6292938;22;20015;-78
2023/06/24 12:26:11;;;;;;;5.60;3.70;;;36.00;46.10;;;;;;6292893;22;20064;-78
2023/06/24 12:28:37;;;;;;;6.28;3.95;;;35.50;47.60;;;;;;6293427;22;20051;-77
2023/06/24 12:31:03;;;;;;;6.65;4.65;;;35.00;47.00;;;;;;6294218;22;20015;-77
2023/06/24 12:33:29;;;;;;;5.82;4.40;;;34.40;46.00;;;;;;6294832;22;20083;-78